sensor_id;sensor_type;location;lat;lon;timestamp;pressure;altitude;pressure_sealevel;temperature;humidity
15444;BME280;7822;48.146;11.576;2024-02-15T00:02:17;95633.81;;;14.65;60.02
15444;BME280;7822;48.146;11.576;2024-02-15T00:04:46;95630.38;;;14.64;60.15
15444;BME280;7822;48.146;11.576;2024-02-15T00:07:14;95637.22;;;14.65;60.04
15444;BME280;7822;48.146;11.576;2024-02-15T00:09:41;95639.84;;;14.65;60.10
15444;BME280;7822;48.146;11.576;2024-02-15T00:12:09;95636.41;;;14.65;60.19
15444;BME280;7822;48.146;11.576;2024-02-15T00:14:36;95638.19;;;14.64;60.01
15444;BME280;7822;48.146;11.576;2024-02-15T00:17:05;95635.59;;;14.64;59.75
15444;BME280;7822;48.146;11.576;2024-02-15T00:19:32;95626.94;;;14.64;59.71
15444;BME280;7822;48.146;11.576;2024-02-15T00:22:02;95629.69;;;14.62;59.65
15444;BME280;7822;48.146;11.576;2024-02-15T00:24:29;95627.75;;;14.64;59.96
15444;BME280;7822;48.146;11.576;2024-02-15T00:26:57;95626.94;;;14.64;59.94
15444;BME280;7822;48.146;11.576;2024-02-15T00:29:24;95632.16;;;14.64;59.90
15444;BME280;7822;48.146;11.576;2024-02-15T00:31:55;95626.94;;;14.64;60.01
15444;BME280;7822;48.146;11.576;2024-02-15T00:34:23;95635.59;;;14.64;59.75
15444;BME280;7822;48.146;11.576;2024-02-15T00:36:52;95634.59;;;14.65;59.84
15444;BME280;7822;48.146;11.576;2024-02-15T00:39:21;95630.38;;;14.64;59.93
15444;BME280;7822;48.146;11.576;2024-02-15T00:41:49;95624.31;;;14.64;59.85
15444;BME280;7822;48.146;11.576;2024-02-15T00:44:16;95625.97;;;14.65;59.84
15444;BME280;7822;48.146;11.576;2024-02-15T00:46:44;95626.94;;;14.64;59.81
15444;BME280;7822;48.146;11.576;2024-02-15T00:49:14;95627.75;;;14.64;59.69
15444;BME280;7822;48.146;11.576;2024-02-15T00:51:42;95625.25;;;14.63;60.10
15444;BME280;7822;48.146;11.576;2024-02-15T00:54:09;95626.94;;;14.64;59.81
15444;BME280;7822;48.146;11.576;2024-02-15T00:56:38;95628.59;;;14.65;59.63
15444;BME280;7822;48.146;11.576;2024-02-15T00:59:06;95632.16;;;14.64;59.79
15444;BME280;7822;48.146;11.576;2024-02-15T01:01:33;95628.69;;;14.63;59.88
15444;BME280;7822;48.146;11.576;2024-02-15T01:04:03;95631.31;;;14.63;59.79
15444;BME280;7822;48.146;11.576;2024-02-15T01:06:31;95620.03;;;14.63;59.79
15444;BME280;7822;48.146;11.576;2024-02-15T01:08:59;95627.88;;;14.63;59.83
15444;BME280;7822;48.146;11.576;2024-02-15T01:11:27;95623.47;;;14.63;59.86
15444;BME280;7822;48.146;11.576;2024-02-15T01:13:56;95627.06;;;14.62;59.85
15444;BME280;7822;48.146;11.576;2024-02-15T01:16:24;95628.69;;;14.63;59.82
15444;BME280;7822;48.146;11.576;2024-02-15T01:18:51;95625.25;;;14.63;59.90
15444;BME280;7822;48.146;11.576;2024-02-15T01:21:19;95628.69;;;14.63;59.78
15444;BME280;7822;48.146;11.576;2024-02-15T01:23:48;95617.44;;;14.63;59.79
15444;BME280;7822;48.146;11.576;2024-02-15T01:26:16;95616.63;;;14.62;59.79
15444;BME280;7822;48.146;11.576;2024-02-15T01:28:43;95622.66;;;14.63;59.85
15444;BME280;7822;48.146;11.576;2024-02-15T01:31:12;95626.09;;;14.63;59.94
15444;BME280;7822;48.146;11.576;2024-02-15T01:33:43;95631.31;;;14.63;59.91
15444;BME280;7822;48.146;11.576;2024-02-15T01:36:13;95617.44;;;14.63;59.92
15444;BME280;7822;48.146;11.576;2024-02-15T01:38:41;95620.03;;;14.63;60.07
15444;BME280;7822;48.146;11.576;2024-02-15T01:41:09;95622.66;;;14.63;59.87
15444;BME280;7822;48.146;11.576;2024-02-15T01:43:37;95613.19;;;14.62;60.00
15444;BME280;7822;48.146;11.576;2024-02-15T01:46:07;95614.00;;;14.62;59.88
15444;BME280;7822;48.146;11.576;2024-02-15T01:48:36;95611.53;;;14.61;59.88
15444;BME280;7822;48.146;11.576;2024-02-15T01:51:06;95609.75;;;14.61;59.83
15444;BME280;7822;48.146;11.576;2024-02-15T01:53:34;95610.56;;;14.62;60.01
15444;BME280;7822;48.146;11.576;2024-02-15T01:56:01;95607.13;;;14.61;59.98
15444;BME280;7822;48.146;11.576;2024-02-15T01:58:29;95602.88;;;14.60;60.27
15444;BME280;7822;48.146;11.576;2024-02-15T02:00:58;95603.69;;;14.61;60.04
15444;BME280;7822;48.146;11.576;2024-02-15T02:03:27;95607.28;;;14.60;59.88
15444;BME280;7822;48.146;11.576;2024-02-15T02:05:56;95613.34;;;14.60;60.03
15444;BME280;7822;48.146;11.576;2024-02-15T02:08:24;95609.88;;;14.60;59.76
15444;BME280;7822;48.146;11.576;2024-02-15T02:10:52;95604.66;;;14.60;59.85
15444;BME280;7822;48.146;11.576;2024-02-15T02:13:20;95600.28;;;14.60;59.74
15444;BME280;7822;48.146;11.576;2024-02-15T02:15:47;95593.41;;;14.59;59.88
15444;BME280;7822;48.146;11.576;2024-02-15T02:18:15;95596.16;;;14.58;59.89
15444;BME280;7822;48.146;11.576;2024-02-15T02:20:42;95598.63;;;14.59;60.07
15444;BME280;7822;48.146;11.576;2024-02-15T02:23:14;95602.19;;;14.58;59.82
15444;BME280;7822;48.146;11.576;2024-02-15T02:25:43;95601.22;;;14.59;59.85
15444;BME280;7822;48.146;11.576;2024-02-15T02:28:13;95599.56;;;14.58;59.76
15444;BME280;7822;48.146;11.576;2024-02-15T02:30:42;95596.84;;;14.60;60.10
15444;BME280;7822;48.146;11.576;2024-02-15T02:33:12;95593.41;;;14.59;59.87
15444;BME280;7822;48.146;11.576;2024-02-15T02:35:45;95595.16;;;14.59;60.13
15444;BME280;7822;48.146;11.576;2024-02-15T02:38:14;95588.31;;;14.58;59.78
15444;BME280;7822;48.146;11.576;2024-02-15T02:40:43;95590.78;;;14.59;59.94
15444;BME280;7822;48.146;11.576;2024-02-15T02:43:11;95596.84;;;14.60;59.93
15444;BME280;7822;48.146;11.576;2024-02-15T02:45:38;95591.72;;;14.58;59.98
15444;BME280;7822;48.146;11.576;2024-02-15T02:48:07;95596.00;;;14.59;59.79
15444;BME280;7822;48.146;11.576;2024-02-15T02:50:35;95588.31;;;14.58;59.80
15444;BME280;7822;48.146;11.576;2024-02-15T02:53:03;95593.53;;;14.58;60.22
15444;BME280;7822;48.146;11.576;2024-02-15T02:55:31;95583.91;;;14.58;60.09
15444;BME280;7822;48.146;11.576;2024-02-15T02:58:00;95586.50;;;14.58;59.96
15444;BME280;7822;48.146;11.576;2024-02-15T03:00:28;95582.25;;;14.57;59.79
15444;BME280;7822;48.146;11.576;2024-02-15T03:02:56;95576.22;;;14.57;59.78
15444;BME280;7822;48.146;11.576;2024-02-15T03:05:24;95576.06;;;14.58;59.98
15444;BME280;7822;48.146;11.576;2024-02-15T03:07:51;95578.69;;;14.58;59.99
15444;BME280;7822;48.146;11.576;2024-02-15T03:10:19;95580.50;;;14.58;59.78
15444;BME280;7822;48.146;11.576;2024-02-15T03:12:47;95586.50;;;14.58;60.16
15444;BME280;7822;48.146;11.576;2024-02-15T03:15:16;95582.25;;;14.57;60.19
15444;BME280;7822;48.146;11.576;2024-02-15T03:17:45;95587.50;;;14.57;60.20
15444;BME280;7822;48.146;11.576;2024-02-15T03:20:14;95583.09;;;14.58;59.67
15444;BME280;7822;48.146;11.576;2024-02-15T03:22:52;95586.66;;;14.57;59.79
15444;BME280;7822;48.146;11.576;2024-02-15T03:25:20;95583.09;;;14.58;59.99
15444;BME280;7822;48.146;11.576;2024-02-15T03:27:50;95591.88;;;14.57;59.93
15444;BME280;7822;48.146;11.576;2024-02-15T03:30:20;95591.03;;;14.56;59.79
15444;BME280;7822;48.146;11.576;2024-02-15T03:32:48;95582.25;;;14.57;59.84
15444;BME280;7822;48.146;11.576;2024-02-15T03:35:17;95584.03;;;14.57;60.02
15444;BME280;7822;48.146;11.576;2024-02-15T03:37:45;95584.88;;;14.57;59.65
15444;BME280;7822;48.146;11.576;2024-02-15T03:40:13;95584.88;;;14.57;60.00
15444;BME280;7822;48.146;11.576;2024-02-15T03:42:40;95590.09;;;14.57;59.99
15444;BME280;7822;48.146;11.576;2024-02-15T03:45:08;95581.44;;;14.57;60.05
15444;BME280;7822;48.146;11.576;2024-02-15T03:47:38;95578.81;;;14.57;59.96
15444;BME280;7822;48.146;11.576;2024-02-15T03:50:06;95589.25;;;14.57;59.83
15444;BME280;7822;48.146;11.576;2024-02-15T03:52:36;95599.72;;;14.57;59.62
15444;BME280;7822;48.146;11.576;2024-02-15T03:55:04;95596.28;;;14.56;59.75
15444;BME280;7822;48.146;11.576;2024-02-15T03:57:31;95598.06;;;14.56;59.60
15444;BME280;7822;48.146;11.576;2024-02-15T04:00:00;95601.50;;;14.56;59.67
15444;BME280;7822;48.146;11.576;2024-02-15T04:02:28;95594.63;;;14.55;59.89
15444;BME280;7822;48.146;11.576;2024-02-15T04:04:58;95594.50;;;14.57;59.77
15444;BME280;7822;48.146;11.576;2024-02-15T04:07:25;95590.25;;;14.56;59.89
15444;BME280;7822;48.146;11.576;2024-02-15T04:09:53;95584.19;;;14.55;59.93
15444;BME280;7822;48.146;11.576;2024-02-15T04:12:21;95587.63;;;14.56;59.71
15444;BME280;7822;48.146;11.576;2024-02-15T04:14:48;95589.25;;;14.57;59.95
15444;BME280;7822;48.146;11.576;2024-02-15T04:17:17;95586.81;;;14.55;59.88
15444;BME280;7822;48.146;11.576;2024-02-15T04:19:48;95592.84;;;14.56;60.04
15444;BME280;7822;48.146;11.576;2024-02-15T04:22:17;95598.06;;;14.56;59.95
15444;BME280;7822;48.146;11.576;2024-02-15T04:24:45;95595.47;;;14.56;59.86
15444;BME280;7822;48.146;11.576;2024-02-15T04:27:13;95603.31;;;14.56;59.94
15444;BME280;7822;48.146;11.576;2024-02-15T04:29:41;95602.47;;;14.55;60.01
15444;BME280;7822;48.146;11.576;2024-02-15T04:32:10;95599.72;;;14.57;59.92
15444;BME280;7822;48.146;11.576;2024-02-15T04:34:38;95608.53;;;14.56;60.11
15444;BME280;7822;48.146;11.576;2024-02-15T04:37:06;95603.31;;;14.56;59.72
15444;BME280;7822;48.146;11.576;2024-02-15T04:39:35;95595.47;;;14.56;60.00
15444;BME280;7822;48.146;11.576;2024-02-15T04:42:03;95599.84;;;14.55;59.80
15444;BME280;7822;48.146;11.576;2024-02-15T04:44:32;95601.50;;;14.56;59.81
15444;BME280;7822;48.146;11.576;2024-02-15T04:47:01;95594.63;;;14.55;59.93
15444;BME280;7822;48.146;11.576;2024-02-15T04:49:30;95603.31;;;14.56;60.02
15444;BME280;7822;48.146;11.576;2024-02-15T04:51:58;95600.69;;;14.56;59.75
15444;BME280;7822;48.146;11.576;2024-02-15T04:54:28;95609.47;;;14.55;59.82
15444;BME280;7822;48.146;11.576;2024-02-15T04:56:58;95603.31;;;14.56;59.70
15444;BME280;7822;48.146;11.576;2024-02-15T04:59:27;95606.72;;;14.56;59.85
15444;BME280;7822;48.146;11.576;2024-02-15T05:01:55;95605.91;;;14.56;59.83
15444;BME280;7822;48.146;11.576;2024-02-15T05:04:23;95602.47;;;14.55;59.72
15444;BME280;7822;48.146;11.576;2024-02-15T05:06:51;95599.84;;;14.55;59.80
15444;BME280;7822;48.146;11.576;2024-02-15T05:09:20;95598.88;;;14.56;59.86
15444;BME280;7822;48.146;11.576;2024-02-15T05:11:49;95598.88;;;14.56;59.73
15444;BME280;7822;48.146;11.576;2024-02-15T05:14:18;95591.03;;;14.56;59.64
15444;BME280;7822;48.146;11.576;2024-02-15T05:16:47;95593.53;;;14.58;59.79
15444;BME280;7822;48.146;11.576;2024-02-15T05:19:15;95596.00;;;14.59;59.85
15444;BME280;7822;48.146;11.576;2024-02-15T05:21:43;95591.72;;;14.58;59.51
15444;BME280;7822;48.146;11.576;2024-02-15T05:24:12;95594.22;;;14.60;59.59
15444;BME280;7822;48.146;11.576;2024-02-15T05:26:41;95590.63;;;14.61;59.46
15444;BME280;7822;48.146;11.576;2024-02-15T05:29:10;95586.25;;;14.61;59.63
15444;BME280;7822;48.146;11.576;2024-02-15T05:31:39;95598.34;;;14.62;59.42
15444;BME280;7822;48.146;11.576;2024-02-15T05:34:06;95585.41;;;14.61;59.22
15444;BME280;7822;48.146;11.576;2024-02-15T05:36:38;95593.25;;;14.61;59.45
15444;BME280;7822;48.146;11.576;2024-02-15T05:39:05;95592.44;;;14.60;59.41
15444;BME280;7822;48.146;11.576;2024-02-15T05:41:33;95593.25;;;14.61;59.46
15444;BME280;7822;48.146;11.576;2024-02-15T05:44:01;95593.25;;;14.61;59.56
15444;BME280;7822;48.146;11.576;2024-02-15T05:46:31;95590.78;;;14.59;59.29
15444;BME280;7822;48.146;11.576;2024-02-15T05:49:01;95600.28;;;14.60;59.33
15444;BME280;7822;48.146;11.576;2024-02-15T05:51:31;95588.31;;;14.58;59.37
15444;BME280;7822;48.146;11.576;2024-02-15T05:54:00;95594.22;;;14.60;59.40
15444;BME280;7822;48.146;11.576;2024-02-15T05:56:29;95586.50;;;14.58;59.41
15444;BME280;7822;48.146;11.576;2024-02-15T05:58:56;95593.41;;;14.59;59.45
15444;BME280;7822;48.146;11.576;2024-02-15T06:01:24;95586.38;;;14.60;59.28
15444;BME280;7822;48.146;11.576;2024-02-15T06:03:51;95586.50;;;14.58;59.24
15444;BME280;7822;48.146;11.576;2024-02-15T06:06:23;95590.78;;;14.59;59.24
15444;BME280;7822;48.146;11.576;2024-02-15T06:08:53;95591.72;;;14.58;59.39
15444;BME280;7822;48.146;11.576;2024-02-15T06:11:24;95583.09;;;14.58;59.44
15444;BME280;7822;48.146;11.576;2024-02-15T06:13:51;95591.72;;;14.58;59.25
15444;BME280;7822;48.146;11.576;2024-02-15T06:16:19;95591.72;;;14.58;59.27
15444;BME280;7822;48.146;11.576;2024-02-15T06:18:48;95596.16;;;14.58;59.10
15444;BME280;7822;48.146;11.576;2024-02-15T06:21:15;95592.72;;;14.57;59.26
15444;BME280;7822;48.146;11.576;2024-02-15T06:23:45;95587.50;;;14.57;59.22
15444;BME280;7822;48.146;11.576;2024-02-15T06:26:14;95601.38;;;14.58;59.11
15444;BME280;7822;48.146;11.576;2024-02-15T06:28:43;95597.94;;;14.57;59.48
15444;BME280;7822;48.146;11.576;2024-02-15T06:31:27;95595.31;;;14.57;59.04
15444;BME280;7822;48.146;11.576;2024-02-15T06:34:12;95599.72;;;14.57;59.22
15444;BME280;7822;48.146;11.576;2024-02-15T06:36:57;95602.31;;;14.57;59.27
15444;BME280;7822;48.146;11.576;2024-02-15T06:39:43;95605.75;;;14.57;59.17
15444;BME280;7822;48.146;11.576;2024-02-15T06:42:12;95607.53;;;14.57;59.05
15444;BME280;7822;48.146;11.576;2024-02-15T06:44:42;95610.97;;;14.57;59.21
15444;BME280;7822;48.146;11.576;2024-02-15T06:47:10;95610.97;;;14.57;59.04
15444;BME280;7822;48.146;11.576;2024-02-15T06:49:38;95617.72;;;14.60;59.29
15444;BME280;7822;48.146;11.576;2024-02-15T06:52:07;95612.63;;;14.58;59.09
15444;BME280;7822;48.146;11.576;2024-02-15T06:54:34;95610.84;;;14.59;59.16
15444;BME280;7822;48.146;11.576;2024-02-15T06:57:04;95619.50;;;14.59;59.19
15444;BME280;7822;48.146;11.576;2024-02-15T06:59:32;95612.63;;;14.58;59.12
15444;BME280;7822;48.146;11.576;2024-02-15T07:02:00;95614.44;;;14.58;59.09
15444;BME280;7822;48.146;11.576;2024-02-15T07:04:31;95617.03;;;14.58;59.10
15444;BME280;7822;48.146;11.576;2024-02-15T07:06:59;95620.34;;;14.60;59.00
15444;BME280;7822;48.146;11.576;2024-02-15T07:09:28;95611.81;;;14.58;59.10
15444;BME280;7822;48.146;11.576;2024-02-15T07:11:56;95614.44;;;14.58;58.96
15444;BME280;7822;48.146;11.576;2024-02-15T07:14:26;95622.25;;;14.58;59.09
15444;BME280;7822;48.146;11.576;2024-02-15T07:16:54;95616.22;;;14.57;58.96
15444;BME280;7822;48.146;11.576;2024-02-15T07:19:24;95613.59;;;14.57;59.02
15444;BME280;7822;48.146;11.576;2024-02-15T07:21:53;95616.22;;;14.57;59.13
15444;BME280;7822;48.146;11.576;2024-02-15T07:24:22;95620.59;;;14.57;58.70
15444;BME280;7822;48.146;11.576;2024-02-15T07:26:54;95620.59;;;14.57;58.96
15444;BME280;7822;48.146;11.576;2024-02-15T07:29:22;95610.97;;;14.57;58.83
15444;BME280;7822;48.146;11.576;2024-02-15T07:31:52;95610.97;;;14.57;59.08
15444;BME280;7822;48.146;11.576;2024-02-15T07:34:20;95610.97;;;14.57;58.82
15444;BME280;7822;48.146;11.576;2024-02-15T07:36:49;95613.59;;;14.57;58.64
15444;BME280;7822;48.146;11.576;2024-02-15T07:39:17;95610.97;;;14.57;58.86
15444;BME280;7822;48.146;11.576;2024-02-15T07:41:50;95610.97;;;14.57;59.16
15444;BME280;7822;48.146;11.576;2024-02-15T07:44:18;95607.53;;;14.57;58.83
15444;BME280;7822;48.146;11.576;2024-02-15T07:46:46;95600.69;;;14.56;58.76
15444;BME280;7822;48.146;11.576;2024-02-15T07:49:15;95603.16;;;14.57;58.88
15444;BME280;7822;48.146;11.576;2024-02-15T07:51:44;95594.50;;;14.57;58.96
15444;BME280;7822;48.146;11.576;2024-02-15T07:54:14;95599.72;;;14.57;58.97
15444;BME280;7822;48.146;11.576;2024-02-15T07:56:42;95595.31;;;14.57;58.80
15444;BME280;7822;48.146;11.576;2024-02-15T07:59:09;95594.34;;;14.58;58.80
15444;BME280;7822;48.146;11.576;2024-02-15T08:01:39;95594.50;;;14.57;58.52
15444;BME280;7822;48.146;11.576;2024-02-15T08:04:07;95594.34;;;14.58;58.47
15444;BME280;7822;48.146;11.576;2024-02-15T08:06:36;95590.94;;;14.58;58.60
15444;BME280;7822;48.146;11.576;2024-02-15T08:09:04;95592.72;;;14.57;58.28
15444;BME280;7822;48.146;11.576;2024-02-15T08:11:32;95589.25;;;14.57;58.74
15444;BME280;7822;48.146;11.576;2024-02-15T08:14:00;95587.63;;;14.56;58.02
15444;BME280;7822;48.146;11.576;2024-02-15T08:16:27;95585.97;;;14.55;58.17
15444;BME280;7822;48.146;11.576;2024-02-15T08:18:55;95586.81;;;14.55;57.96
15444;BME280;7822;48.146;11.576;2024-02-15T08:21:26;95578.97;;;14.55;57.97
15444;BME280;7822;48.146;11.576;2024-02-15T08:23:57;95571.97;;;14.56;57.77
15444;BME280;7822;48.146;11.576;2024-02-15T08:26:25;95569.38;;;14.56;58.17
15444;BME280;7822;48.146;11.576;2024-02-15T08:28:52;95567.56;;;14.56;58.19
15444;BME280;7822;48.146;11.576;2024-02-15T08:31:22;95570.03;;;14.58;58.00
15444;BME280;7822;48.146;11.576;2024-02-15T08:33:49;95567.56;;;14.56;58.30
15444;BME280;7822;48.146;11.576;2024-02-15T08:36:17;95564.94;;;14.56;58.27
15444;BME280;7822;48.146;11.576;2024-02-15T08:38:45;95565.78;;;14.57;58.22
15444;BME280;7822;48.146;11.576;2024-02-15T08:41:14;95566.59;;;14.57;58.01
15444;BME280;7822;48.146;11.576;2024-02-15T08:43:44;95563.16;;;14.57;58.29
15444;BME280;7822;48.146;11.576;2024-02-15T08:46:11;95561.38;;;14.57;58.17
15444;BME280;7822;48.146;11.576;2024-02-15T08:48:39;95563.16;;;14.57;58.20
15444;BME280;7822;48.146;11.576;2024-02-15T08:51:07;95564.13;;;14.56;58.28
15444;BME280;7822;48.146;11.576;2024-02-15T08:53:35;95558.78;;;14.57;58.16
15444;BME280;7822;48.146;11.576;2024-02-15T08:56:04;95562.22;;;14.58;58.52
15444;BME280;7822;48.146;11.576;2024-02-15T08:58:33;95556.16;;;14.57;58.32
15444;BME280;7822;48.146;11.576;2024-02-15T09:01:02;95557.00;;;14.58;58.30
15444;BME280;7822;48.146;11.576;2024-02-15T09:03:29;95547.34;;;14.58;58.34
15444;BME280;7822;48.146;11.576;2024-02-15T09:05:57;95543.94;;;14.58;58.36
15444;BME280;7822;48.146;11.576;2024-02-15T09:08:25;95555.06;;;14.60;58.47
15444;BME280;7822;48.146;11.576;2024-02-15T09:10:53;95554.09;;;14.61;58.38
15444;BME280;7822;48.146;11.576;2024-02-15T09:13:21;95557.69;;;14.60;58.30
15444;BME280;7822;48.146;11.576;2024-02-15T09:15:50;95548.06;;;14.60;58.41
15444;BME280;7822;48.146;11.576;2024-02-15T09:18:18;95559.31;;;14.61;58.49
15444;BME280;7822;48.146;11.576;2024-02-15T09:20:49;95554.09;;;14.61;58.45
15444;BME280;7822;48.146;11.576;2024-02-15T09:23:22;95549.69;;;14.61;58.35
15444;BME280;7822;48.146;11.576;2024-02-15T09:25:49;95549.69;;;14.61;58.35
15444;BME280;7822;48.146;11.576;2024-02-15T09:28:18;95544.47;;;14.61;58.22
15444;BME280;7822;48.146;11.576;2024-02-15T09:30:48;95534.84;;;14.62;58.37
15444;BME280;7822;48.146;11.576;2024-02-15T09:33:19;95533.19;;;14.61;58.12
15444;BME280;7822;48.146;11.576;2024-02-15T09:35:47;95536.63;;;14.61;58.32
15444;BME280;7822;48.146;11.576;2024-02-15T09:38:15;95527.03;;;14.62;58.39
15444;BME280;7822;48.146;11.576;2024-02-15T09:40:48;95524.41;;;14.62;58.37
15444;BME280;7822;48.146;11.576;2024-02-15T09:43:16;95525.25;;;14.62;58.39
15444;BME280;7822;48.146;11.576;2024-02-15T09:45:43;95517.41;;;14.62;58.54
15444;BME280;7822;48.146;11.576;2024-02-15T09:48:11;95518.22;;;14.63;58.61
15444;BME280;7822;48.146;11.576;2024-02-15T09:50:41;95514.66;;;14.64;58.47
15444;BME280;7822;48.146;11.576;2024-02-15T09:53:09;95508.47;;;14.65;58.75
15444;BME280;7822;48.146;11.576;2024-02-15T09:55:37;95510.25;;;14.64;58.39
15444;BME280;7822;48.146;11.576;2024-02-15T09:58:07;95501.44;;;14.65;58.61
15444;BME280;7822;48.146;11.576;2024-02-15T10:00:35;95501.44;;;14.65;58.45
15444;BME280;7822;48.146;11.576;2024-02-15T10:03:05;95500.50;;;14.66;58.80
15444;BME280;7822;48.146;11.576;2024-02-15T10:05:33;95505.56;;;14.68;58.72
15444;BME280;7822;48.146;11.576;2024-02-15T10:08:02;95502.00;;;14.69;58.59
15444;BME280;7822;48.146;11.576;2024-02-15T10:10:30;95500.19;;;14.69;58.85
15444;BME280;7822;48.146;11.576;2024-02-15T10:13:00;95501.19;;;14.68;58.65
15444;BME280;7822;48.146;11.576;2024-02-15T10:15:28;95501.19;;;14.68;58.84
15444;BME280;7822;48.146;11.576;2024-02-15T10:17:59;95507.22;;;14.69;58.76
15444;BME280;7822;48.146;11.576;2024-02-15T10:20:27;95503.78;;;14.68;58.76
15444;BME280;7822;48.146;11.576;2024-02-15T10:23:08;95504.63;;;14.69;58.94
15444;BME280;7822;48.146;11.576;2024-02-15T10:25:37;95498.56;;;14.68;58.79
15444;BME280;7822;48.146;11.576;2024-02-15T10:28:05;95493.34;;;14.68;58.68
15444;BME280;7822;48.146;11.576;2024-02-15T10:30:34;95491.56;;;14.69;58.78
15444;BME280;7822;48.146;11.576;2024-02-15T10:33:02;95487.13;;;14.69;58.81
15444;BME280;7822;48.146;11.576;2024-02-15T10:35:31;95477.53;;;14.70;58.84
15444;BME280;7822;48.146;11.576;2024-02-15T10:38:07;95482.75;;;14.70;58.73
15444;BME280;7822;48.146;11.576;2024-02-15T10:40:36;95470.53;;;14.70;58.89
15444;BME280;7822;48.146;11.576;2024-02-15T10:43:05;95469.56;;;14.71;58.95
15444;BME280;7822;48.146;11.576;2024-02-15T10:45:34;95469.56;;;14.71;58.93
15444;BME280;7822;48.146;11.576;2024-02-15T10:48:05;95458.28;;;14.71;58.79
15444;BME280;7822;48.146;11.576;2024-02-15T10:50:33;95450.31;;;14.72;58.88
15444;BME280;7822;48.146;11.576;2024-02-15T10:53:00;95453.75;;;14.73;58.64
15444;BME280;7822;48.146;11.576;2024-02-15T10:55:35;95445.91;;;14.73;58.82
15444;BME280;7822;48.146;11.576;2024-02-15T10:58:06;95442.47;;;14.72;58.84
15444;BME280;7822;48.146;11.576;2024-02-15T11:00:34;95437.25;;;14.72;58.94
15444;BME280;7822;48.146;11.576;2024-02-15T11:03:04;95430.41;;;14.71;58.76
15444;BME280;7822;48.146;11.576;2024-02-15T11:05:32;95435.63;;;14.71;58.97
15444;BME280;7822;48.146;11.576;2024-02-15T11:08:02;95419.94;;;14.71;58.76
15444;BME280;7822;48.146;11.576;2024-02-15T11:10:30;95417.34;;;14.71;58.97
15444;BME280;7822;48.146;11.576;2024-02-15T11:12:59;95413.75;;;14.72;58.66
15444;BME280;7822;48.146;11.576;2024-02-15T11:18:42;95408.38;;;14.74;58.88
15444;BME280;7822;48.146;11.576;2024-02-15T11:21:12;95403.16;;;14.74;58.77
15444;BME280;7822;48.146;11.576;2024-02-15T11:23:39;95403.16;;;14.74;58.82
15444;BME280;7822;48.146;11.576;2024-02-15T11:26:08;95393.69;;;14.73;59.26
15444;BME280;7822;48.146;11.576;2024-02-15T11:28:37;95392.69;;;14.74;58.94
15444;BME280;7822;48.146;11.576;2024-02-15T11:31:06;95391.06;;;14.73;59.34
15444;BME280;7822;48.146;11.576;2024-02-15T11:33:35;95377.34;;;14.71;58.87
15444;BME280;7822;48.146;11.576;2024-02-15T11:36:05;95376.34;;;14.72;58.79
15444;BME280;7822;48.146;11.576;2024-02-15T11:38:33;95377.88;;;14.74;58.78
15444;BME280;7822;48.146;11.576;2024-02-15T11:41:04;95372.66;;;14.74;58.91
15444;BME280;7822;48.146;11.576;2024-02-15T11:43:46;95370.84;;;14.75;59.04
15444;BME280;7822;48.146;11.576;2024-02-15T11:46:16;95364.81;;;14.74;58.76
15444;BME280;7822;48.146;11.576;2024-02-15T11:48:44;95360.56;;;14.73;59.04
15444;BME280;7822;48.146;11.576;2024-02-15T11:51:25;95351.91;;;14.73;59.04
15444;BME280;7822;48.146;11.576;2024-02-15T11:54:02;95352.72;;;14.73;58.97
15444;BME280;7822;48.146;11.576;2024-02-15T11:59:18;95346.38;;;14.76;59.21
15444;BME280;7822;48.146;11.576;2024-02-15T12:01:55;95349.13;;;14.74;59.06
15444;BME280;7822;48.146;11.576;2024-02-15T12:04:41;95345.56;;;14.75;59.19
15444;BME280;7822;48.146;11.576;2024-02-15T12:07:33;95341.31;;;14.74;58.78
15444;BME280;7822;48.146;11.576;2024-02-15T12:10:18;95342.97;;;14.75;58.90
15444;BME280;7822;48.146;11.576;2024-02-15T12:13:13;95336.09;;;14.74;59.12
15444;BME280;7822;48.146;11.576;2024-02-15T12:16:01;95331.69;;;14.75;59.09
15444;BME280;7822;48.146;11.576;2024-02-15T12:18:43;95325.63;;;14.74;59.18
15444;BME280;7822;48.146;11.576;2024-02-15T12:21:19;95326.47;;;14.75;58.97
15444;BME280;7822;48.146;11.576;2024-02-15T12:24:01;95315.34;;;14.73;59.19
15444;BME280;7822;48.146;11.576;2024-02-15T12:27:01;95317.81;;;14.74;58.91
15444;BME280;7822;48.146;11.576;2024-02-15T12:29:55;95318.63;;;14.75;58.89
15444;BME280;7822;48.146;11.576;2024-02-15T12:32:31;95315.03;;;14.76;58.81
15444;BME280;7822;48.146;11.576;2024-02-15T12:35:10;95314.09;;;14.77;58.97
15444;BME280;7822;48.146;11.576;2024-02-15T12:38:01;95313.13;;;14.78;58.96
15444;BME280;7822;48.146;11.576;2024-02-15T12:40:48;95307.06;;;14.77;58.73
15444;BME280;7822;48.146;11.576;2024-02-15T12:43:22;95302.69;;;14.78;59.03
15444;BME280;7822;48.146;11.576;2024-02-15T12:46:18;95300.88;;;14.78;59.12
15444;BME280;7822;48.146;11.576;2024-02-15T12:49:10;95297.47;;;14.78;59.17
15444;BME280;7822;48.146;11.576;2024-02-15T12:51:50;95290.56;;;14.77;59.70
15444;BME280;7822;48.146;11.576;2024-02-15T12:54:22;95287.97;;;14.77;59.25
15444;BME280;7822;48.146;11.576;2024-02-15T12:57:10;95287.13;;;14.76;59.06
15444;BME280;7822;48.146;11.576;2024-02-15T12:59:56;95276.69;;;14.76;58.92
15444;BME280;7822;48.146;11.576;2024-02-15T13:02:29;95281.63;;;14.79;58.97
15444;BME280;7822;48.146;11.576;2024-02-15T13:05:02;95274.63;;;14.80;59.02
15444;BME280;7822;48.146;11.576;2024-02-15T13:07:41;95275.59;;;14.79;59.12
15444;BME280;7822;48.146;11.576;2024-02-15T13:10:17;95269.53;;;14.78;58.89
15444;BME280;7822;48.146;11.576;2024-02-15T13:13:06;95273.81;;;14.79;59.08
15444;BME280;7822;48.146;11.576;2024-02-15T13:15:44;95271.19;;;14.79;58.92
15444;BME280;7822;48.146;11.576;2024-02-15T13:18:29;95267.75;;;14.79;59.18
15444;BME280;7822;48.146;11.576;2024-02-15T13:21:21;95265.97;;;14.79;59.21
15444;BME280;7822;48.146;11.576;2024-02-15T13:24:01;95260.75;;;14.79;59.42